Time;durP1;ratioP1;P1;durP2;ratioP2;P2;SDS_P1;SDS_P2;PMS_P1;PMS_P2;Temp;Humidity;BMP_temperature;BMP_pressure;BME280_temperature;BME280_humidity;BME280_pressure;Samples;Min_cycle;Max_cycle;Signal;HPM_P1;HPM_P2
2024/01/10 00:01:55;;;;;;;17.02;10.77;;;-5.50;99.90;;;;;;4931413;28;20122;-60
2024/01/10 00:04:20;;;;;;;14.52;9.88;;;-5.40;99.90;;;;;;4930957;28;20350;-60
2024/01/10 00:06:46;;;;;;;20.25;10.98;;;-5.40;99.90;;;;;;4923360;28;20133;-58
2024/01/10 00:09:12;;;;;;;18.67;9.87;;;-5.40;99.90;;;;;;4916046;28;21078;-61
2024/01/10 00:11:37;;;;;;;21.90;10.88;;;-5.30;99.90;;;;;;4950635;28;20033;-60
2024/01/10 00:14:04;;;;;;;20.50;10.27;;;-5.30;99.90;;;;;;4917290;28;20062;-58
2024/01/10 00:16:29;;;;;;;22.05;10.60;;;-5.20;99.90;;;;;;4948783;28;20104;-61
2024/01/10 00:18:55;;;;;;;25.13;9.02;;;-5.20;99.90;;;;;;4933367;28;20021;-59
2024/01/10 00:21:20;;;;;;;26.50;10.02;;;-5.20;99.90;;;;;;4912920;28;21371;-60
2024/01/10 00:23:46;;;;;;;19.20;9.77;;;-5.20;99.90;;;;;;4936461;28;20037;-59
2024/01/10 00:26:11;;;;;;;18.52;9.52;;;-5.20;99.90;;;;;;4917679;28;20507;-60
2024/01/10 00:28:37;;;;;;;16.02;8.98;;;-5.20;99.90;;;;;;4906882;28;20038;-60
2024/01/10 00:31:03;;;;;;;18.60;9.80;;;-5.20;99.90;;;;;;4921028;28;20229;-61
2024/01/10 00:33:28;;;;;;;19.15;9.18;;;-5.20;99.90;;;;;;4918597;28;20022;-60
2024/01/10 00:35:54;;;;;;;13.70;9.23;;;-5.20;99.90;;;;;;4954988;28;20027;-58
2024/01/10 00:38:20;;;;;;;18.23;10.75;;;-5.20;99.90;;;;;;4916557;28;20130;-57
2024/01/10 00:40:45;;;;;;;23.88;11.02;;;-5.10;99.90;;;;;;4914873;28;20042;-59
2024/01/10 00:43:11;;;;;;;18.67;10.88;;;-5.10;99.90;;;;;;4918915;28;20038;-59
2024/01/10 00:45:36;;;;;;;19.38;9.65;;;-5.10;99.90;;;;;;4915514;28;20030;-60
2024/01/10 00:48:02;;;;;;;20.10;10.25;;;-5.10;99.90;;;;;;4938545;28;20564;-61
2024/01/10 00:50:28;;;;;;;16.17;10.30;;;-5.10;99.90;;;;;;4917988;28;20029;-60
2024/01/10 00:52:54;;;;;;;17.60;10.73;;;-5.10;99.90;;;;;;4922556;28;21565;-60
2024/01/10 00:55:19;;;;;;;18.33;9.73;;;-5.10;99.90;;;;;;4929074;28;20042;-59
2024/01/10 00:57:45;;;;;;;33.35;11.75;;;-5.10;99.90;;;;;;4904777;28;20030;-61
2024/01/10 01:00:11;;;;;;;15.93;9.25;;;-5.10;99.90;;;;;;4913856;28;21604;-59
2024/01/10 01:02:39;;;;;;;17.10;9.98;;;-5.10;99.90;;;;;;4954239;28;20039;-61
2024/01/10 01:05:06;;;;;;;18.30;10.02;;;-5.00;99.90;;;;;;4917408;28;20034;-60
2024/01/10 01:07:32;;;;;;;17.45;10.40;;;-5.00;99.90;;;;;;4931353;28;20158;-61
2024/01/10 01:09:57;;;;;;;20.15;10.82;;;-5.00;99.90;;;;;;4939986;28;20033;-58
2024/01/10 01:12:23;;;;;;;18.08;10.52;;;-5.00;99.90;;;;;;4913552;28;21729;-60
2024/01/10 01:14:48;;;;;;;19.20;11.10;;;-5.00;99.90;;;;;;4950973;28;20038;-60
2024/01/10 01:17:14;;;;;;;21.05;11.52;;;-5.00;99.90;;;;;;4918466;28;20038;-58
2024/01/10 01:19:40;;;;;;;24.70;11.45;;;-5.00;99.90;;;;;;4893758;28;20026;-59
2024/01/10 01:22:05;;;;;;;22.88;11.75;;;-5.00;99.90;;;;;;4932397;28;20105;-59
2024/01/10 01:24:31;;;;;;;23.70;12.38;;;-5.00;99.90;;;;;;4907979;28;20568;-59
2024/01/10 01:26:56;;;;;;;25.00;13.40;;;-5.00;99.90;;;;;;4932273;28;20057;-60
2024/01/10 01:29:22;;;;;;;24.40;13.80;;;-5.00;99.90;;;;;;4903086;28;20030;-60
2024/01/10 01:31:48;;;;;;;20.35;12.82;;;-5.00;99.90;;;;;;4907405;28;20085;-60
2024/01/10 01:34:13;;;;;;;25.15;12.65;;;-4.90;99.90;;;;;;4907436;28;20094;-60
2024/01/10 01:36:39;;;;;;;25.92;12.88;;;-4.90;99.90;;;;;;4906415;28;20035;-58
2024/01/10 01:39:05;;;;;;;21.65;13.05;;;-4.90;99.90;;;;;;4908508;28;20030;-61
2024/01/10 01:41:31;;;;;;;21.58;12.40;;;-4.90;99.90;;;;;;4935714;28;20113;-60
2024/01/10 01:43:56;;;;;;;24.10;14.57;;;-4.90;99.90;;;;;;4897525;28;20031;-59
2024/01/10 01:46:23;;;;;;;22.95;12.23;;;-4.90;99.90;;;;;;4940115;28;20620;-59
2024/01/10 01:48:49;;;;;;;21.98;13.15;;;-5.00;99.90;;;;;;4896622;28;20041;-60
2024/01/10 01:51:17;;;;;;;26.15;13.00;;;-5.00;99.90;;;;;;4902963;28;20632;-58
2024/01/10 01:53:44;;;;;;;28.27;13.50;;;-5.00;99.90;;;;;;4938060;28;20022;-56
2024/01/10 01:56:12;;;;;;;22.50;12.60;;;-4.90;99.90;;;;;;4896519;28;20697;-61
2024/01/10 01:58:39;;;;;;;20.70;12.95;;;-5.00;99.90;;;;;;4886781;28;20045;-61
2024/01/10 02:01:05;;;;;;;19.90;11.73;;;-5.00;99.90;;;;;;4936853;28;20033;-59
2024/01/10 02:03:32;;;;;;;24.75;14.32;;;-4.90;99.90;;;;;;4887124;28;20030;-60
2024/01/10 02:05:59;;;;;;;24.25;12.02;;;-4.90;99.90;;;;;;4924201;28;20051;-60
2024/01/10 02:08:24;;;;;;;21.77;11.73;;;-4.90;99.90;;;;;;4880987;28;20133;-61
2024/01/10 02:10:50;;;;;;;24.30;13.55;;;-4.80;99.90;;;;;;4884982;28;21193;-58
2024/01/10 02:13:17;;;;;;;28.60;13.10;;;-4.90;99.90;;;;;;4919844;28;20031;-60
2024/01/10 02:15:42;;;;;;;28.17;12.88;;;-4.80;99.90;;;;;;4884865;28;20022;-60
2024/01/10 02:18:12;;;;;;;27.10;13.35;;;-4.90;99.90;;;;;;4876401;28;20033;-61
2024/01/10 02:20:38;;;;;;;23.45;12.45;;;-4.80;99.90;;;;;;4912728;28;20038;-60
2024/01/10 02:23:04;;;;;;;25.85;12.57;;;-4.80;99.90;;;;;;4880321;28;20022;-60
2024/01/10 02:25:29;;;;;;;23.17;12.60;;;-4.80;99.90;;;;;;4921869;28;20634;-59
2024/01/10 02:27:55;;;;;;;27.90;14.85;;;-4.80;99.90;;;;;;4869629;28;20498;-59
2024/01/10 02:30:20;;;;;;;22.77;12.48;;;-4.80;99.90;;;;;;4877241;28;21392;-60
2024/01/10 02:32:46;;;;;;;26.35;12.38;;;-4.80;99.90;;;;;;4900066;28;20077;-60
2024/01/10 02:35:11;;;;;;;22.13;11.95;;;-4.80;99.90;;;;;;4872772;28;20045;-59
2024/01/10 02:37:37;;;;;;;28.15;13.73;;;-4.80;99.90;;;;;;4896918;28;20030;-61
2024/01/10 02:40:03;;;;;;;27.65;14.15;;;-4.70;99.90;;;;;;4899381;28;20415;-59
2024/01/10 02:42:30;;;;;;;29.35;14.68;;;-4.80;99.90;;;;;;4877741;28;21007;-60
2024/01/10 02:44:55;;;;;;;28.73;14.65;;;-4.80;99.90;;;;;;4892969;28;20026;-58
2024/01/10 02:47:21;;;;;;;36.83;15.65;;;-4.80;99.90;;;;;;4867416;28;20034;-59
2024/01/10 02:49:46;;;;;;;30.48;14.18;;;-4.80;99.90;;;;;;4872218;28;20036;-60
2024/01/10 02:52:12;;;;;;;31.17;14.10;;;-4.80;99.90;;;;;;4904692;28;22451;-57
2024/01/10 02:54:38;;;;;;;25.67;12.40;;;-4.80;99.90;;;;;;4871060;28;20027;-59
2024/01/10 02:57:04;;;;;;;21.35;11.73;;;-4.70;99.90;;;;;;4886747;28;20104;-61
2024/01/10 02:59:29;;;;;;;20.38;10.38;;;-4.70;99.90;;;;;;4904525;28;20027;-60
2024/01/10 03:01:55;;;;;;;20.95;11.63;;;-4.70;99.90;;;;;;4878655;28;21034;-58
2024/01/10 03:04:20;;;;;;;22.15;11.38;;;-4.70;99.90;;;;;;4903498;28;20176;-60
2024/01/10 03:06:46;;;;;;;21.30;11.93;;;-4.60;99.90;;;;;;4881387;28;20121;-60
2024/01/10 03:09:11;;;;;;;17.92;9.82;;;-4.60;99.90;;;;;;4875646;28;20084;-60
2024/01/10 03:11:37;;;;;;;17.23;9.10;;;-4.60;99.90;;;;;;4924115;28;20034;-59
2024/01/10 03:14:07;;;;;;;17.40;9.73;;;-4.60;99.90;;;;;;4852989;28;20649;-60
2024/01/10 03:16:33;;;;;;;18.13;9.40;;;-4.60;99.90;;;;;;4906562;28;20030;-61
2024/01/10 03:18:58;;;;;;;15.75;8.75;;;-4.60;99.90;;;;;;4880868;28;20068;-60
2024/01/10 03:21:26;;;;;;;18.80;9.48;;;-4.50;99.90;;;;;;4876919;28;20034;-59
2024/01/10 03:24:00;;;;;;;17.27;9.48;;;-4.50;99.90;;;;;;4912066;28;20022;-59
2024/01/10 03:26:27;;;;;;;17.08;9.73;;;-4.50;99.90;;;;;;4868950;28;20022;-59
2024/01/10 03:28:53;;;;;;;15.45;8.35;;;-4.50;99.90;;;;;;4856339;28;22290;-60
2024/01/10 03:31:19;;;;;;;19.27;9.38;;;-4.50;99.90;;;;;;4914036;28;20041;-60
2024/01/10 03:33:45;;;;;;;15.82;8.45;;;-4.40;99.90;;;;;;4871429;28;20697;-60
2024/01/10 03:36:14;;;;;;;17.27;8.98;;;-4.40;99.90;;;;;;4853916;28;20030;-61
2024/01/10 03:38:40;;;;;;;14.77;8.15;;;-4.40;99.90;;;;;;4899778;28;20568;-59
2024/01/10 03:41:05;;;;;;;15.60;7.82;;;-4.40;99.90;;;;;;4863055;28;20034;-60
2024/01/10 03:43:31;;;;;;;18.65;8.90;;;-4.40;99.90;;;;;;4890006;28;20442;-61
2024/01/10 03:45:58;;;;;;;16.42;9.88;;;-4.40;99.90;;;;;;4875094;28;20035;-59
2024/01/10 03:48:23;;;;;;;18.60;9.75;;;-4.40;99.90;;;;;;4868074;28;21500;-58
2024/01/10 03:50:49;;;;;;;22.58;9.32;;;-4.40;99.90;;;;;;4923861;28;20041;-59
2024/01/10 03:53:15;;;;;;;17.17;9.32;;;-4.40;99.90;;;;;;4851888;28;20560;-60
2024/01/10 03:55:41;;;;;;;16.88;9.65;;;-4.40;99.90;;;;;;4853904;28;20193;-61
2024/01/10 03:58:07;;;;;;;16.40;8.35;;;-4.30;99.90;;;;;;4919942;28;20028;-58
2024/01/10 04:00:32;;;;;;;14.15;8.07;;;-4.30;99.90;;;;;;4864685;28;20612;-59
2024/01/10 04:02:58;;;;;;;22.40;10.15;;;-4.40;99.90;;;;;;4896861;28;20380;-60
2024/01/10 04:05:25;;;;;;;15.02;8.60;;;-4.40;99.90;;;;;;4828604;28;20072;-59
2024/01/10 04:07:51;;;;;;;14.15;7.72;;;-4.40;99.90;;;;;;4835366;28;21951;-61
2024/01/10 04:10:17;;;;;;;15.70;7.43;;;-4.40;99.90;;;;;;4910924;28;20120;-60
2024/01/10 04:12:44;;;;;;;15.27;7.88;;;-4.40;99.90;;;;;;4861055;28;20454;-59
2024/01/10 04:15:11;;;;;;;11.68;7.07;;;-4.40;99.90;;;;;;4861673;28;20050;-61
2024/01/10 04:17:36;;;;;;;13.50;7.32;;;-4.40;99.90;;;;;;4902223;28;20022;-60
2024/01/10 04:20:03;;;;;;;17.75;7.57;;;-4.40;99.90;;;;;;4841518;28;22528;-58
2024/01/10 04:22:28;;;;;;;11.00;6.63;;;-4.40;99.90;;;;;;4883030;28;20115;-60
2024/01/10 04:25:00;;;;;;;11.35;7.85;;;-4.40;99.90;;;;;;4851865;28;20653;-59
2024/01/10 04:27:26;;;;;;;12.50;6.78;;;-4.40;99.90;;;;;;4851615;28;21805;-59
2024/01/10 04:29:53;;;;;;;13.90;7.78;;;-4.40;99.90;;;;;;4895412;28;20045;-60
2024/01/10 04:32:18;;;;;;;11.80;6.82;;;-4.50;99.90;;;;;;4840015;28;20018;-58
2024/01/10 04:34:44;;;;;;;14.40;7.15;;;-4.50;99.90;;;;;;4813964;28;20411;-61
2024/01/10 04:37:10;;;;;;;14.52;7.45;;;-4.50;99.90;;;;;;4914050;28;20026;-59
2024/01/10 04:39:37;;;;;;;13.80;6.45;;;-4.50;99.90;;;;;;4849573;28;20264;-59
2024/01/10 04:42:03;;;;;;;10.32;6.03;;;-4.50;99.90;;;;;;4883495;28;20036;-61
2024/01/10 04:44:29;;;;;;;11.23;6.68;;;-4.60;99.90;;;;;;4831262;28;20526;-60
2024/01/10 04:46:55;;;;;;;13.18;7.05;;;-4.60;99.90;;;;;;4846451;28;21686;-59
2024/01/10 04:49:20;;;;;;;12.07;6.20;;;-4.60;99.90;;;;;;4913377;28;20092;-60
2024/01/10 04:51:46;;;;;;;11.63;7.10;;;-4.60;99.90;;;;;;4845522;28;20036;-60
2024/01/10 04:54:12;;;;;;;9.13;6.18;;;-4.60;99.90;;;;;;4838368;28;20125;-61
2024/01/10 04:56:37;;;;;;;12.45;6.82;;;-4.60;99.90;;;;;;4927476;28;20403;-60
2024/01/10 04:59:03;;;;;;;17.80;6.97;;;-4.60;99.90;;;;;;4905121;28;20121;-59
2024/01/10 05:01:29;;;;;;;13.63;6.65;;;-4.60;99.90;;;;;;4960324;28;20066;-59
2024/01/10 05:03:55;;;;;;;15.52;6.65;;;-4.60;99.90;;;;;;4963509;28;20154;-60
2024/01/10 05:06:20;;;;;;;12.27;6.72;;;-4.60;99.90;;;;;;4948857;28;20038;-61
2024/01/10 05:08:46;;;;;;;11.27;6.47;;;-4.60;99.90;;;;;;4954110;28;20737;-60
2024/01/10 05:11:14;;;;;;;13.35;6.18;;;-4.60;99.90;;;;;;4944842;28;20030;-58
2024/01/10 05:13:39;;;;;;;10.70;6.15;;;-4.60;99.90;;;;;;4947497;28;20449;-59
2024/01/10 05:16:05;;;;;;;10.75;6.78;;;-4.60;99.90;;;;;;4936102;28;20117;-61
2024/01/10 05:18:31;;;;;;;13.30;6.97;;;-4.70;99.90;;;;;;4969502;28;20057;-60
2024/01/10 05:20:57;;;;;;;13.60;6.93;;;-4.60;99.90;;;;;;4929421;28;20045;-60
2024/01/10 05:23:23;;;;;;;11.38;6.93;;;-4.60;99.90;;;;;;4935715;28;20034;-60
2024/01/10 05:25:49;;;;;;;10.95;6.55;;;-4.60;99.90;;;;;;4954610;28;20564;-60
2024/01/10 05:28:15;;;;;;;18.17;8.27;;;-4.60;99.90;;;;;;4951162;28;20033;-60
2024/01/10 05:30:42;;;;;;;17.10;8.40;;;-4.60;99.90;;;;;;4956663;28;20034;-58
2024/01/10 05:33:08;;;;;;;19.25;8.98;;;-4.60;99.90;;;;;;4936551;28;20126;-60
2024/01/10 05:35:34;;;;;;;17.10;8.73;;;-4.60;99.90;;;;;;4913258;28;20048;-60
2024/01/10 05:38:02;;;;;;;13.25;7.70;;;-4.60;99.90;;;;;;4967848;22;20077;-59
2024/01/10 05:40:30;;;;;;;13.95;7.50;;;-4.60;99.90;;;;;;4912114;28;20033;-57
2024/01/10 05:42:55;;;;;;;16.15;8.32;;;-4.60;99.90;;;;;;4961113;28;20026;-59
2024/01/10 05:45:21;;;;;;;19.42;7.97;;;-4.60;99.90;;;;;;4950848;28;20026;-59
2024/01/10 05:47:48;;;;;;;14.35;7.65;;;-4.60;99.90;;;;;;4924971;28;20034;-59
2024/01/10 05:50:13;;;;;;;13.18;7.50;;;-4.60;99.90;;;;;;4923232;28;20455;-60
2024/01/10 05:52:39;;;;;;;15.55;8.40;;;-4.60;99.90;;;;;;4897706;28;20033;-59
2024/01/10 05:55:07;;;;;;;19.90;9.45;;;-4.50;99.90;;;;;;4929889;28;20058;-61
2024/01/10 05:57:33;;;;;;;12.82;8.50;;;-4.50;99.90;;;;;;4941979;28;20025;-60
2024/01/10 05:59:58;;;;;;;14.75;7.95;;;-4.40;99.90;;;;;;4927031;28;20018;-60
2024/01/10 06:02:24;;;;;;;11.35;7.22;;;-4.50;99.90;;;;;;4919239;28;20015;-60
2024/01/10 06:04:50;;;;;;;15.40;7.57;;;-4.40;99.90;;;;;;4910328;28;20030;-58
2024/01/10 06:07:15;;;;;;;12.77;7.28;;;-4.40;99.90;;;;;;4895437;28;20066;-60
2024/01/10 06:09:43;;;;;;;14.40;7.28;;;-4.40;99.90;;;;;;4937932;28;20026;-60
2024/01/10 06:12:09;;;;;;;14.82;8.23;;;-4.30;99.90;;;;;;4890708;28;20023;-60
2024/01/10 06:14:35;;;;;;;15.25;8.82;;;-4.30;99.90;;;;;;4916359;28;20037;-61
2024/01/10 06:17:03;;;;;;;14.13;8.43;;;-4.30;99.90;;;;;;4906217;28;20035;-60
2024/01/10 06:19:29;;;;;;;11.15;7.57;;;-4.30;99.90;;;;;;4911423;28;20480;-60
2024/01/10 06:21:55;;;;;;;14.10;8.27;;;-4.30;99.90;;;;;;4913667;28;20114;-60
2024/01/10 06:24:21;;;;;;;13.35;7.88;;;-4.20;99.90;;;;;;4913798;28;20066;-59
2024/01/10 06:26:46;;;;;;;12.18;7.72;;;-4.30;99.90;;;;;;4917180;28;20061;-59
2024/01/10 06:29:23;;;;;;;13.63;7.25;;;-4.20;99.90;;;;;;4925947;28;20062;-61
2024/01/10 06:31:48;;;;;;;9.75;7.18;;;-4.20;99.90;;;;;;4913712;28;20043;-60
2024/01/10 06:34:14;;;;;;;13.68;7.68;;;-4.20;99.90;;;;;;4898002;28;20077;-60
2024/01/10 06:36:39;;;;;;;9.95;7.28;;;-4.20;99.90;;;;;;4939458;28;20039;-59
2024/01/10 06:39:05;;;;;;;10.48;6.30;;;-4.10;99.90;;;;;;4902585;28;20514;-60
2024/01/10 06:41:31;;;;;;;9.57;6.25;;;-4.10;99.90;;;;;;4876525;28;20023;-62
2024/01/10 06:43:57;;;;;;;17.98;9.32;;;-4.10;99.90;;;;;;4905092;28;20038;-60
2024/01/10 06:46:22;;;;;;;13.35;8.02;;;-4.10;99.90;;;;;;4894822;28;21787;-60
2024/01/10 06:48:49;;;;;;;10.55;7.22;;;-4.10;99.90;;;;;;4923752;28;20559;-60
2024/01/10 06:51:16;;;;;;;13.63;8.23;;;-4.00;99.90;;;;;;4904162;28;20038;-59
2024/01/10 06:53:41;;;;;;;13.20;7.40;;;-4.00;99.90;;;;;;4906279;28;20034;-58
2024/01/10 06:56:09;;;;;;;13.93;7.82;;;-4.00;99.90;;;;;;4923611;28;20481;-59
2024/01/10 06:58:35;;;;;;;11.65;8.45;;;-3.90;99.90;;;;;;4890265;28;20022;-60
2024/01/10 07:01:00;;;;;;;15.65;8.90;;;-3.90;99.90;;;;;;4915139;28;20027;-59
2024/01/10 07:03:26;;;;;;;12.77;8.40;;;-3.90;99.90;;;;;;4908345;28;20031;-60
2024/01/10 07:05:52;;;;;;;19.42;9.13;;;-3.90;99.90;;;;;;4906701;28;22089;-60
2024/01/10 07:08:18;;;;;;;13.25;8.90;;;-3.90;99.90;;;;;;4909467;28;20046;-61
2024/01/10 07:10:43;;;;;;;13.43;7.45;;;-3.80;99.90;;;;;;4876110;28;20030;-59
2024/01/10 07:13:09;;;;;;;11.80;7.55;;;-3.80;99.90;;;;;;4904766;28;20074;-59
2024/01/10 07:15:35;;;;;;;10.93;7.03;;;-3.80;99.90;;;;;;4933229;28;20055;-60
2024/01/10 07:18:00;;;;;;;11.02;7.10;;;-3.80;99.90;;;;;;4888783;28;20550;-60
2024/01/10 07:20:26;;;;;;;11.23;7.75;;;-3.80;99.90;;;;;;4926352;28;20034;-60
2024/01/10 07:22:51;;;;;;;13.38;7.88;;;-3.70;99.90;;;;;;4887474;28;20078;-61
2024/01/10 07:25:17;;;;;;;13.10;7.35;;;-3.70;99.90;;;;;;4889291;28;20031;-61
2024/01/10 07:27:43;;;;;;;12.52;6.97;;;-3.70;99.90;;;;;;4924873;28;20109;-59
2024/01/10 07:30:15;;;;;;;10.93;7.00;;;-3.70;99.90;;;;;;4902673;28;20062;-60
2024/01/10 07:32:45;;;;;;;10.27;7.75;;;-3.70;99.90;;;;;;4904109;28;20582;-59
2024/01/10 07:35:13;;;;;;;11.85;7.25;;;-3.60;99.90;;;;;;4927296;28;20033;-60
2024/01/10 07:37:40;;;;;;;10.52;6.82;;;-3.60;99.90;;;;;;4895816;28;20026;-59
2024/01/10 07:40:06;;;;;;;9.98;6.82;;;-3.60;99.90;;;;;;4900754;28;20031;-62
2024/01/10 07:42:36;;;;;;;12.50;7.20;;;-3.60;99.90;;;;;;4924130;28;20503;-60
2024/01/10 07:45:04;;;;;;;8.70;6.47;;;-3.60;99.90;;;;;;4896241;28;20106;-60
2024/01/10 07:47:39;;;;;;;12.02;6.88;;;-3.50;99.90;;;;;;4926850;28;20062;-59
2024/01/10 07:50:09;;;;;;;10.83;6.83;;;-3.60;99.90;;;;;;4916780;28;20472;-60
2024/01/10 07:52:35;;;;;;;10.27;6.35;;;-3.60;99.90;;;;;;4875125;28;20034;-60
2024/01/10 07:55:01;;;;;;;12.30;6.80;;;-3.50;99.90;;;;;;4916091;28;20031;-61
2024/01/10 07:57:27;;;;;;;11.18;6.63;;;-3.50;99.90;;;;;;4896123;28;20030;-58
2024/01/10 07:59:53;;;;;;;10.85;7.43;;;-3.60;99.90;;;;;;4893204;28;20733;-58
2024/01/10 08:02:19;;;;;;;9.02;6.55;;;-3.50;99.90;;;;;;4924386;28;20064;-60
2024/01/10 08:04:44;;;;;;;10.82;7.30;;;-3.50;99.90;;;;;;4881965;28;20434;-59
2024/01/10 08:07:10;;;;;;;9.85;6.82;;;-3.50;99.90;;;;;;4872457;28;20042;-60
2024/01/10 08:09:36;;;;;;;12.48;7.63;;;-3.40;99.90;;;;;;4906775;28;20034;-59
2024/01/10 08:12:03;;;;;;;12.32;8.00;;;-3.40;99.90;;;;;;4891925;28;20031;-59
2024/01/10 08:14:28;;;;;;;10.52;7.07;;;-3.40;99.90;;;;;;4921892;28;20027;-59
2024/01/10 08:16:57;;;;;;;9.98;6.60;;;-3.40;99.90;;;;;;4878951;28;20034;-61
2024/01/10 08:19:26;;;;;;;10.57;7.50;;;-3.30;99.90;;;;;;4887864;28;21843;-59
2024/01/10 08:21:56;;;;;;;10.77;6.30;;;-3.30;99.90;;;;;;4892910;28;20034;-59
2024/01/10 08:24:21;;;;;;;10.80;6.15;;;-3.30;99.90;;;;;;4866147;28;20465;-60
2024/01/10 08:26:51;;;;;;;9.75;6.72;;;-3.30;99.90;;;;;;4887350;28;20101;-59
2024/01/10 08:29:18;;;;;;;10.02;6.35;;;-3.20;99.90;;;;;;4908151;28;20031;-61
2024/01/10 08:31:45;;;;;;;10.63;6.57;;;-3.30;99.90;;;;;;4878751;28;20102;-60
2024/01/10 08:34:11;;;;;;;9.73;6.93;;;-3.30;99.90;;;;;;4866376;28;20143;-60
2024/01/10 08:36:37;;;;;;;8.90;6.32;;;-3.20;99.90;;;;;;4912158;28;20034;-59
2024/01/10 08:39:03;;;;;;;10.27;7.30;;;-3.20;99.90;;;;;;4869941;28;20022;-59
2024/01/10 08:41:30;;;;;;;11.43;7.40;;;-3.20;99.90;;;;;;4920122;28;20559;-59
2024/01/10 08:43:55;;;;;;;9.43;6.43;;;-3.10;99.90;;;;;;4841609;28;20031;-60
2024/01/10 08:46:21;;;;;;;8.88;6.30;;;-3.20;99.90;;;;;;4880233;28;22025;-60
2024/01/10 08:48:47;;;;;;;10.88;6.32;;;-3.10;99.90;;;;;;4888728;28;20467;-59
2024/01/10 08:51:16;;;;;;;8.68;6.40;;;-3.10;99.90;;;;;;4871769;28;20096;-59
2024/01/10 08:53:41;;;;;;;10.90;6.57;;;-3.10;99.90;;;;;;4874486;28;20507;-61
2024/01/10 08:56:08;;;;;;;12.45;6.97;;;-3.20;99.90;;;;;;4901354;28;20039;-59
2024/01/10 08:58:33;;;;;;;9.73;6.40;;;-3.10;99.90;;;;;;4870382;28;20020;-60
2024/01/10 09:00:59;;;;;;;10.40;6.95;;;-3.10;99.90;;;;;;4911914;28;20049;-58
2024/01/10 09:03:24;;;;;;;10.95;7.20;;;-3.10;99.90;;;;;;4866965;28;20031;-60
2024/01/10 09:05:50;;;;;;;13.02;9.10;;;-3.10;99.90;;;;;;4865778;28;22808;-59
2024/01/10 09:08:15;;;;;;;22.60;12.60;;;-3.10;99.90;;;;;;4907502;28;20030;-60
2024/01/10 09:10:41;;;;;;;16.65;10.77;;;-3.10;99.90;;;;;;4871339;28;20027;-59
2024/01/10 09:13:07;;;;;;;22.33;12.85;;;-3.00;99.90;;;;;;4898915;28;20337;-61
2024/01/10 09:15:32;;;;;;;12.55;8.40;;;-3.00;99.90;;;;;;4897141;28;20027;-59
2024/01/10 09:17:58;;;;;;;10.07;6.68;;;-3.00;99.90;;;;;;4875257;28;20023;-59
2024/01/10 09:20:23;;;;;;;10.70;6.20;;;-3.00;99.90;;;;;;4910804;28;20031;-60
2024/01/10 09:22:49;;;;;;;9.38;5.90;;;-2.90;99.90;;;;;;4895111;28;20039;-59
2024/01/10 09:25:14;;;;;;;14.10;7.68;;;-2.90;99.90;;;;;;4855007;28;20495;-59
2024/01/10 09:27:41;;;;;;;12.70;7.97;;;-2.90;99.90;;;;;;4886980;28;20038;-58
2024/01/10 09:30:08;;;;;;;13.93;9.38;;;-2.80;99.90;;;;;;4866252;28;20033;-58
2024/01/10 09:32:37;;;;;;;11.60;8.70;;;-2.80;99.90;;;;;;4888272;28;20027;-61
2024/01/10 09:35:03;;;;;;;13.45;8.50;;;-2.80;99.90;;;;;;4896324;28;20562;-61
2024/01/10 09:37:30;;;;;;;12.70;8.00;;;-2.70;99.90;;;;;;4862564;28;20037;-59
2024/01/10 09:39:55;;;;;;;11.23;6.50;;;-2.70;99.90;;;;;;4897789;28;20093;-59
2024/01/10 09:42:25;;;;;;;18.02;10.25;;;-2.70;99.90;;;;;;4834686;28;20113;-59
2024/01/10 09:44:51;;;;;;;12.50;8.20;;;-2.70;99.90;;;;;;4862122;28;21915;-57
2024/01/10 09:47:19;;;;;;;13.93;8.57;;;-2.60;99.90;;;;;;4900377;28;20039;-60
2024/01/10 09:49:46;;;;;;;11.55;7.43;;;-2.60;99.90;;;;;;4860046;28;20065;-60
2024/01/10 09:52:23;;;;;;;17.02;8.75;;;-2.50;99.90;;;;;;4855139;28;20390;-63
2024/01/10 09:54:53;;;;;;;12.43;7.35;;;-2.50;99.90;;;;;;4888982;28;20446;-59
2024/01/10 09:57:20;;;;;;;11.23;7.05;;;-2.60;99.90;;;;;;4856920;28;20033;-61
2024/01/10 09:59:47;;;;;;;10.27;6.80;;;-2.60;99.90;;;;;;4851971;28;20027;-60
2024/01/10 10:02:16;;;;;;;8.05;5.32;;;-2.50;99.90;;;;;;4888385;28;21677;-60
2024/01/10 10:04:54;;;;;;;9.30;6.50;;;-2.60;99.90;;;;;;4855869;28;20037;-59
2024/01/10 10:07:19;;;;;;;6.68;5.47;;;-2.60;99.90;;;;;;4851562;28;20045;-60
2024/01/10 10:09:45;;;;;;;10.65;6.60;;;-2.60;99.90;;;;;;4904788;28;20027;-59
2024/01/10 10:12:10;;;;;;;9.05;6.93;;;-2.60;99.90;;;;;;4851289;28;20035;-61
2024/01/10 10:14:36;;;;;;;10.27;7.10;;;-2.60;99.90;;;;;;4883369;28;20472;-62
2024/01/10 10:17:15;;;;;;;12.23;7.63;;;-2.70;99.90;;;;;;4874349;28;20030;-60
2024/01/10 10:19:41;;;;;;;10.52;7.32;;;-2.60;99.90;;;;;;4849309;28;20035;-60
2024/01/10 10:22:10;;;;;;;12.23;7.32;;;-2.70;99.90;;;;;;4878858;28;20101;-62
2024/01/10 10:24:36;;;;;;;10.60;7.13;;;-2.80;99.90;;;;;;4889964;28;20031;-60
2024/01/10 10:27:07;;;;;;;22.60;11.38;;;-2.80;99.90;;;;;;4849544;28;21267;-60
2024/01/10 10:29:32;;;;;;;13.15;8.52;;;-2.80;99.90;;;;;;4885494;28;20023;-63
2024/01/10 10:32:00;;;;;;;13.57;6.95;;;-2.70;99.90;;;;;;4863107;28;20027;-59
2024/01/10 10:34:30;;;;;;;9.48;6.40;;;-2.80;99.90;;;;;;4847192;28;21649;-59
2024/01/10 10:36:56;;;;;;;8.88;5.80;;;-2.80;99.90;;;;;;4907618;28;20027;-60
2024/01/10 10:39:22;;;;;;;11.40;7.28;;;-2.70;99.90;;;;;;4836714;28;20018;-59
2024/01/10 10:41:50;;;;;;;8.90;6.18;;;-2.70;99.90;;;;;;4846145;28;20046;-60
2024/01/10 10:44:20;;;;;;;8.05;5.50;;;-2.70;99.90;;;;;;4885854;28;20041;-61
2024/01/10 10:46:49;;;;;;;7.18;5.22;;;-2.70;99.90;;;;;;4840671;28;20097;-59
2024/01/10 10:49:18;;;;;;;7.03;4.82;;;-2.80;99.90;;;;;;4837890;28;20041;-62
2024/01/10 10:51:43;;;;;;;9.35;5.97;;;-2.80;99.90;;;;;;4895028;28;20024;-59
2024/01/10 10:54:09;;;;;;;10.15;6.30;;;-2.80;99.90;;;;;;4838120;28;20038;-59
2024/01/10 10:56:37;;;;;;;10.60;6.55;;;-2.80;99.90;;;;;;4869458;28;20023;-63
2024/01/10 10:59:04;;;;;;;11.98;6.60;;;-2.80;99.90;;;;;;4853455;28;20081;-60
2024/01/10 11:01:31;;;;;;;13.38;6.72;;;-2.80;99.90;;;;;;4837192;28;21739;-59
2024/01/10 11:03:58;;;;;;;12.60;6.50;;;-2.80;99.90;;;;;;4897660;28;20038;-60
2024/01/10 11:06:24;;;;;;;9.60;6.28;;;-2.80;99.90;;;;;;4822654;28;20027;-60
2024/01/10 11:09:06;;;;;;;14.95;7.03;;;-2.80;99.90;;;;;;4829316;28;20039;-60
2024/01/10 11:12:05;;;;;;;8.23;5.15;;;-2.90;99.90;;;;;;4855188;28;20027;-63
2024/01/10 11:14:42;;;;;;;6.88;5.10;;;-2.80;99.90;;;;;;4859061;28;20073;-60
2024/01/10 11:17:08;;;;;;;7.22;4.75;;;-2.70;99.90;;;;;;4879971;28;20031;-60
2024/01/10 11:19:43;;;;;;;8.05;5.07;;;-2.70;99.90;;;;;;4891650;28;21671;-60
2024/01/10 11:22:30;;;;;;;8.17;4.93;;;-2.60;99.90;;;;;;4930623;28;20033;-62
2024/01/10 11:24:56;;;;;;;7.13;4.85;;;-2.70;99.90;;;;;;4951565;28;20290;-57
2024/01/10 11:27:22;;;;;;;8.90;5.68;;;-2.80;99.90;;;;;;4895394;28;20039;-60
2024/01/10 11:29:48;;;;;;;10.18;5.30;;;-2.90;99.90;;;;;;4869362;28;20050;-60
2024/01/10 11:32:22;;;;;;;10.48;6.60;;;-3.00;99.90;;;;;;4882197;28;20046;-60
2024/01/10 11:34:53;;;;;;;7.75;5.45;;;-3.00;99.90;;;;;;4882634;28;20023;-60
2024/01/10 11:37:19;;;;;;;7.82;5.03;;;-3.00;99.90;;;;;;4883921;28;20037;-60
2024/01/10 11:39:45;;;;;;;9.35;5.35;;;-3.00;99.90;;;;;;4952053;28;20035;-59
2024/01/10 11:42:12;;;;;;;8.55;4.32;;;-2.90;99.90;;;;;;4896367;28;20051;-59
2024/01/10 11:44:51;;;;;;;7.22;5.00;;;-2.80;99.90;;;;;;4946714;28;20038;-59
2024/01/10 11:47:18;;;;;;;8.20;6.10;;;-2.80;99.90;;;;;;4908136;28;22134;-61
2024/01/10 11:49:57;;;;;;;10.35;5.90;;;-2.70;99.90;;;;;;4944210;28;20031;-60
2024/01/10 11:52:24;;;;;;;7.72;5.60;;;-2.60;99.90;;;;;;4938524;28;20031;-59
2024/01/10 11:54:50;;;;;;;8.85;5.57;;;-2.60;99.90;;;;;;4933166;28;20451;-59
2024/01/10 11:57:22;;;;;;;9.80;6.28;;;-2.50;99.90;;;;;;4938556;28;20019;-59
2024/01/10 11:59:52;;;;;;;12.60;5.85;;;-2.40;99.90;;;;;;4932498;28;20106;-59
2024/01/10 12:02:19;;;;;;;14.18;7.57;;;-2.40;99.90;;;;;;4932007;28;20027;-60
2024/01/10 12:04:45;;;;;;;8.40;5.88;;;-2.40;99.90;;;;;;4927612;28;20081;-58
2024/01/10 12:07:11;;;;;;;7.55;5.00;;;-2.40;99.90;;;;;;4937391;28;20058;-61
2024/01/10 12:09:37;;;;;;;8.18;5.47;;;-2.40;99.90;;;;;;4935553;28;20061;-59
2024/01/10 12:12:03;;;;;;;8.27;5.45;;;-2.30;99.90;;;;;;4946106;28;20023;-58
2024/01/10 12:14:30;;;;;;;7.72;5.80;;;-2.20;99.90;;;;;;4912084;28;20516;-57
2024/01/10 12:16:56;;;;;;;8.30;5.03;;;-2.20;99.90;;;;;;4943066;28;20402;-61
2024/01/10 12:19:22;;;;;;;7.13;5.28;;;-2.20;99.90;;;;;;4936690;28;20130;-61
2024/01/10 12:21:49;;;;;;;8.60;5.45;;;-2.10;99.90;;;;;;4934891;28;20026;-59
2024/01/10 12:24:15;;;;;;;9.30;5.88;;;-2.00;99.90;;;;;;4920341;28;20027;-59
2024/01/10 12:26:48;;;;;;;8.85;6.40;;;-2.00;99.90;;;;;;4928676;28;20077;-59
2024/01/10 12:29:17;;;;;;;8.73;5.90;;;-2.00;99.90;;;;;;4915628;28;21902;-59
2024/01/10 12:31:45;;;;;;;10.25;5.82;;;-2.00;99.90;;;;;;4943710;28;20074;-59
2024/01/10 12:34:11;;;;;;;9.35;4.85;;;-2.00;99.90;;;;;;4925563;28;20030;-61